Catàleg de serveis del Meteocat
Campanya meteocatpedra

Dades de l'estació automàtica el Masroig

?
?
Resum diari 22:00 TU
Dades diàries de l'estació meteorològica
Temperatura mitjana 16.0 °C
Temperatura màxima 20.6 °C 13:49 TU
Temperatura mínima 12.5 °C 6:06 TU
Humitat relativa mitjana 56%
Precipitació acumulada 0.0 mm
Ratxa màxima del vent (2 m) 61.6 km/h - 108º 20:26 TU

El tram horari està expressat en Temps Universal (TU). Cal sumar una hora en horari d'hivern i dues en horari d'estiu per passar a l'hora oficial.

el Masroig

Metadades estació meteorol´gica
Municipi El Masroig
Comarca Priorat
Altitud 141 m
Data alta 20.06.2000
Estat actual Operativa
Dades de període
Període
TU
TM
°C
TX
°C
TN
°C
HRM
%
PPT
mm
VVM (2 m)
km/h
DVM (2 m)
graus
VVX (2 m)
km/h
00:00 - 00:30 14.0 14.1 14.0 75 0.0 8.3 105 16.2
00:30 - 01:00 14.0 14.0 13.8 75 0.0 9.0 106 16.6
01:00 - 01:30 13.4 13.8 13.0 77 0.0 4.7 126 10.1
01:30 - 02:00 12.8 13.0 12.7 79 0.0 3.2 113 7.9
02:00 - 02:30 12.7 13.1 12.5 78 0.0 6.5 115 14.0
02:30 - 03:00 13.2 13.3 13.0 75 0.0 10.4 118 22.3
03:00 - 03:30 13.3 13.4 13.2 74 0.0 11.5 122 22.7
03:30 - 04:00 13.3 13.4 13.1 74 0.0 11.9 125 25.2
04:00 - 04:30 13.2 13.3 13.1 74 0.0 9.0 134 18.4
04:30 - 05:00 13.2 13.3 13.2 73 0.0 6.1 143 18.7
05:00 - 05:30 13.0 13.3 12.7 73 0.0 1.8 209 7.9
05:30 - 06:00 12.6 12.8 12.5 74 0.0 0.7 29 3.2
06:00 - 06:30 13.1 13.7 12.5 70 0.0 8.3 117 22.0
06:30 - 07:00 13.9 14.0 13.7 65 0.0 14.0 116 23.0
07:00 - 07:30 14.1 14.1 14.0 62 0.0 9.7 117 17.6
07:30 - 08:00 14.1 14.2 14.0 60 0.0 9.7 96 20.9
08:00 - 08:30 14.4 14.7 14.2 56 0.0 15.8 103 29.5
08:30 - 09:00 14.9 15.2 14.7 53 0.0 17.3 102 29.2
09:00 - 09:30 15.8 16.2 15.3 49 0.0 17.6 110 36.7
09:30 - 10:00 16.4 16.7 16.2 45 0.0 21.6 118 49.7
10:00 - 10:30 17.3 18.1 16.7 40 0.0 20.9 114 42.1
10:30 - 11:00 18.3 18.9 17.9 38 0.0 21.2 110 43.6
11:00 - 11:30 18.9 19.4 18.4 37 0.0 21.6 110 49.3
11:30 - 12:00 18.6 18.9 18.4 38 0.0 25.6 117 46.4
12:00 - 12:30 18.7 19.0 18.3 40 0.0 22.7 119 44.6
12:30 - 13:00 19.4 20.2 18.4 41 0.0 25.2 112 51.1
13:00 - 13:30 19.8 20.1 19.4 39 0.0 28.8 109 59.4
13:30 - 14:00 20.1 20.6 19.4 40 0.0 13.7 115 41.4
14:00 - 14:30 19.1 19.6 18.8 44 0.0 20.9 117 40.7
14:30 - 15:00 19.1 19.4 18.8 44 0.0 20.9 109 41.8
15:00 - 15:30 19.1 19.3 18.9 43 0.0 21.6 108 51.5
15:30 - 16:00 19.1 19.2 18.7 45 0.0 15.8 100 42.1
16:00 - 16:30 18.5 18.6 18.4 46 0.0 17.6 107 49.0
16:30 - 17:00 18.2 18.4 17.9 48 0.0 16.9 89 38.2
17:00 - 17:30 17.7 17.9 17.6 48 0.0 22.3 98 50.4
17:30 - 18:00 17.5 17.6 17.4 51 0.0 13.0 122 38.9
18:00 - 18:30 17.2 17.3 17.1 53 0.0 15.5 110 41.8
18:30 - 19:00 16.9 17.1 16.6 54 0.0 18.0 118 41.0
19:00 - 19:30 16.4 16.6 16.3 54 0.0 21.6 114 43.2
19:30 - 20:00 16.3 16.4 16.1 53 0.0 32.4 112 58.3
20:00 - 20:30 16.1 16.1 16.1 54 0.0 33.1 113 61.6
20:30 - 21:00 15.9 16.1 15.7 56 0.0 24.5 108 53.3
21:00 - 21:30 15.8 15.9 15.6 58 0.0 24.8 110 45.7
21:30 - 22:00 15.7 15.8 15.6 58 0.0 22.3 108 43.9
22:00 - 22:30 15.7 15.8 15.6 56 0.0 14.0 129 34.6

Les dades en taronja només han passat un control de qualitat automàtic. Resta pendent la seva validació definitiva.